sensor_id;sensor_type;location;lat;lon;timestamp;P1;durP1;ratioP1;P2;durP2;ratioP2
15157;SDS011;7679;48.796;9.056;2022-08-19T00:07:13;4.78;;;4.55;;
15157;SDS011;7679;48.796;9.056;2022-08-19T00:17:37;4.55;;;4.35;;
15157;SDS011;7679;48.796;9.056;2022-08-19T00:28:04;5.05;;;4.75;;
15157;SDS011;7679;48.796;9.056;2022-08-19T00:38:28;4.60;;;4.40;;
15157;SDS011;7679;48.796;9.056;2022-08-19T00:48:57;4.78;;;4.57;;
15157;SDS011;7679;48.796;9.056;2022-08-19T00:59:22;5.00;;;4.70;;
15157;SDS011;7679;48.796;9.056;2022-08-19T01:09:50;5.03;;;4.72;;
15157;SDS011;7679;48.796;9.056;2022-08-19T01:20:16;5.13;;;4.82;;
15157;SDS011;7679;48.796;9.056;2022-08-19T01:30:44;4.75;;;4.45;;
15157;SDS011;7679;48.796;9.056;2022-08-19T01:41:10;4.97;;;4.68;;
15157;SDS011;7679;48.796;9.056;2022-08-19T01:51:37;4.85;;;4.55;;
15157;SDS011;7679;48.796;9.056;2022-08-19T02:02:02;4.95;;;4.65;;
15157;SDS011;7679;48.796;9.056;2022-08-19T02:12:31;4.55;;;4.35;;
15157;SDS011;7679;48.796;9.056;2022-08-19T02:22:55;5.03;;;4.72;;
15157;SDS011;7679;48.796;9.056;2022-08-19T02:33:22;4.80;;;4.50;;
15157;SDS011;7679;48.796;9.056;2022-08-19T02:43:46;5.22;;;4.93;;
15157;SDS011;7679;48.796;9.056;2022-08-19T02:54:13;5.18;;;4.88;;
15157;SDS011;7679;48.796;9.056;2022-08-19T03:04:37;5.22;;;4.93;;
15157;SDS011;7679;48.796;9.056;2022-08-19T03:15:06;5.15;;;4.85;;
15157;SDS011;7679;48.796;9.056;2022-08-19T03:25:30;4.97;;;4.68;;
15157;SDS011;7679;48.796;9.056;2022-08-19T03:36:09;4.63;;;4.40;;
15157;SDS011;7679;48.796;9.056;2022-08-19T03:46:36;5.57;;;5.20;;
15157;SDS011;7679;48.796;9.056;2022-08-19T03:57:03;5.40;;;5.10;;
15157;SDS011;7679;48.796;9.056;2022-08-19T04:07:28;5.32;;;5.03;;
15157;SDS011;7679;48.796;9.056;2022-08-19T04:17:55;5.68;;;5.30;;
15157;SDS011;7679;48.796;9.056;2022-08-19T04:28:19;5.63;;;5.32;;
15157;SDS011;7679;48.796;9.056;2022-08-19T04:38:46;5.40;;;5.10;;
15157;SDS011;7679;48.796;9.056;2022-08-19T04:49:10;5.13;;;4.82;;
15157;SDS011;7679;48.796;9.056;2022-08-19T04:59:37;5.55;;;5.25;;
15157;SDS011;7679;48.796;9.056;2022-08-19T05:10:02;5.10;;;4.80;;
15157;SDS011;7679;48.796;9.056;2022-08-19T05:20:30;5.70;;;5.30;;
15157;SDS011;7679;48.796;9.056;2022-08-19T05:31:06;5.32;;;5.03;;
15157;SDS011;7679;48.796;9.056;2022-08-19T05:41:33;6.00;;;5.60;;
15157;SDS011;7679;48.796;9.056;2022-08-19T05:51:58;7.80;;;7.20;;
15157;SDS011;7679;48.796;9.056;2022-08-19T06:02:28;9.43;;;8.73;;
15157;SDS011;7679;48.796;9.056;2022-08-19T06:12:53;9.93;;;9.23;;
15157;SDS011;7679;48.796;9.056;2022-08-19T06:23:20;7.85;;;7.20;;
15157;SDS011;7679;48.796;9.056;2022-08-19T06:33:44;9.55;;;8.85;;
15157;SDS011;7679;48.796;9.056;2022-08-19T06:44:11;9.32;;;8.63;;
15157;SDS011;7679;48.796;9.056;2022-08-19T06:54:35;9.70;;;9.00;;
15157;SDS011;7679;48.796;9.056;2022-08-19T07:05:02;10.20;;;9.45;;
15157;SDS011;7679;48.796;9.056;2022-08-19T07:15:26;11.95;;;10.95;;
15157;SDS011;7679;48.796;9.056;2022-08-19T07:25:53;11.70;;;10.80;;
15157;SDS011;7679;48.796;9.056;2022-08-19T07:36:18;11.65;;;10.55;;
15157;SDS011;7679;48.796;9.056;2022-08-19T07:46:47;11.15;;;10.32;;
15157;SDS011;7679;48.796;9.056;2022-08-19T07:57:13;10.95;;;10.15;;
15157;SDS011;7679;48.796;9.056;2022-08-19T08:07:40;10.45;;;9.73;;
15157;SDS011;7679;48.796;9.056;2022-08-19T08:18:16;10.88;;;10.00;;
15157;SDS011;7679;48.796;9.056;2022-08-19T08:28:43;10.55;;;9.75;;
15157;SDS011;7679;48.796;9.056;2022-08-19T08:39:08;10.13;;;9.32;;
15157;SDS011;7679;48.796;9.056;2022-08-19T08:49:36;10.07;;;9.38;;
15157;SDS011;7679;48.796;9.056;2022-08-19T09:00:06;9.60;;;8.90;;
15157;SDS011;7679;48.796;9.056;2022-08-19T09:10:37;9.45;;;8.75;;
15157;SDS011;7679;48.796;9.056;2022-08-19T09:21:02;9.35;;;8.75;;
15157;SDS011;7679;48.796;9.056;2022-08-19T09:31:30;9.10;;;8.50;;
15157;SDS011;7679;48.796;9.056;2022-08-19T09:41:55;8.77;;;8.18;;
15157;SDS011;7679;48.796;9.056;2022-08-19T09:52:21;8.70;;;8.10;;
15157;SDS011;7679;48.796;9.056;2022-08-19T10:02:45;8.73;;;8.13;;
15157;SDS011;7679;48.796;9.056;2022-08-19T10:13:12;8.35;;;7.75;;
15157;SDS011;7679;48.796;9.056;2022-08-19T10:23:37;7.68;;;7.18;;
15157;SDS011;7679;48.796;9.056;2022-08-19T10:34:07;7.55;;;7.05;;
15157;SDS011;7679;48.796;9.056;2022-08-19T10:44:32;8.07;;;7.47;;
15157;SDS011;7679;48.796;9.056;2022-08-19T10:55:00;7.70;;;7.20;;
15157;SDS011;7679;48.796;9.056;2022-08-19T11:05:36;7.38;;;6.88;;
15157;SDS011;7679;48.796;9.056;2022-08-19T11:16:05;7.53;;;7.05;;
15157;SDS011;7679;48.796;9.056;2022-08-19T11:26:31;7.40;;;6.90;;
15157;SDS011;7679;48.796;9.056;2022-08-19T11:36:58;6.57;;;6.18;;
15157;SDS011;7679;48.796;9.056;2022-08-19T11:47:23;6.88;;;6.28;;
15157;SDS011;7679;48.796;9.056;2022-08-19T11:57:50;7.07;;;6.57;;
15157;SDS011;7679;48.796;9.056;2022-08-19T12:08:13;6.53;;;6.13;;
15157;SDS011;7679;48.796;9.056;2022-08-19T12:18:40;6.75;;;6.35;;
15157;SDS011;7679;48.796;9.056;2022-08-19T12:29:06;6.35;;;5.95;;
15157;SDS011;7679;48.796;9.056;2022-08-19T12:39:33;6.32;;;5.93;;
15157;SDS011;7679;48.796;9.056;2022-08-19T12:49:57;6.13;;;5.82;;
15157;SDS011;7679;48.796;9.056;2022-08-19T13:00:24;5.88;;;5.57;;
15157;SDS011;7679;48.796;9.056;2022-08-19T13:10:48;5.55;;;5.25;;
15157;SDS011;7679;48.796;9.056;2022-08-19T13:21:16;5.60;;;5.30;;
15157;SDS011;7679;48.796;9.056;2022-08-19T13:31:40;5.80;;;5.50;;
15157;SDS011;7679;48.796;9.056;2022-08-19T13:42:20;5.90;;;5.60;;
15157;SDS011;7679;48.796;9.056;2022-08-19T13:52:44;5.40;;;5.10;;
15157;SDS011;7679;48.796;9.056;2022-08-19T14:03:11;5.40;;;5.10;;
15157;SDS011;7679;48.796;9.056;2022-08-19T14:13:35;5.35;;;5.05;;
15157;SDS011;7679;48.796;9.056;2022-08-19T14:24:02;5.70;;;5.30;;
15157;SDS011;7679;48.796;9.056;2022-08-19T14:34:27;6.65;;;5.95;;
15157;SDS011;7679;48.796;9.056;2022-08-19T14:44:56;6.13;;;5.57;;
15157;SDS011;7679;48.796;9.056;2022-08-19T14:55:26;6.18;;;5.68;;
15157;SDS011;7679;48.796;9.056;2022-08-19T15:05:53;6.63;;;5.80;;
15157;SDS011;7679;48.796;9.056;2022-08-19T15:16:17;7.85;;;5.65;;
15157;SDS011;7679;48.796;9.056;2022-08-19T15:26:45;7.00;;;5.68;;
15157;SDS011;7679;48.796;9.056;2022-08-19T15:37:09;10.32;;;5.93;;
15157;SDS011;7679;48.796;9.056;2022-08-19T15:47:35;8.20;;;6.50;;
15157;SDS011;7679;48.796;9.056;2022-08-19T15:58:00;9.13;;;6.30;;
15157;SDS011;7679;48.796;9.056;2022-08-19T16:08:51;8.25;;;5.45;;
15157;SDS011;7679;48.796;9.056;2022-08-19T16:41:50;6.30;;;5.70;;
15157;SDS011;7679;48.796;9.056;2022-08-19T16:52:55;5.75;;;5.38;;
15157;SDS011;7679;48.796;9.056;2022-08-19T17:03:34;6.22;;;5.82;;
15157;SDS011;7679;48.796;9.056;2022-08-19T17:47:37;5.35;;;5.05;;
15157;SDS011;7679;48.796;9.056;2022-08-19T18:32:09;5.03;;;4.72;;
15157;SDS011;7679;48.796;9.056;2022-08-19T19:05:33;5.85;;;5.47;;
